Terminal Aerodrome Forecast
Issued by NWS Pendleton, OR

Home | Current Version | Previous Version | Text Only | Print | Product List | Glossary On
Versions: 1 2 3 4 5 6 7 8 9 10 11 12 13 14 15
000
FTUS46 KPDT 031720
TAFPDT
TAF
KPDT 031720Z 0318/0418 27011KT P6SM SCT060
     FM040400 15006KT P6SM SKC
     FM041200 15006KT P6SM BKN200=

USA.gov is the U.S. government's official web portal to all federal, state and local government web resources and services.